sensor_id;sensor_type;location;lat;lon;timestamp;P1;durP1;ratioP1;P2;durP2;ratioP2
30872;SDS011;17579;42.690;2.586;2023-03-13T00:00:59;2.88;;;1.38;;
30872;SDS011;17579;42.690;2.586;2023-03-13T00:03:26;2.60;;;1.50;;
30872;SDS011;17579;42.690;2.586;2023-03-13T00:08:20;3.30;;;1.30;;
30872;SDS011;17579;42.690;2.586;2023-03-13T00:10:45;2.47;;;1.30;;
30872;SDS011;17579;42.690;2.586;2023-03-13T00:13:11;5.47;;;1.48;;
30872;SDS011;17579;42.690;2.586;2023-03-13T00:15:36;2.85;;;1.35;;
30872;SDS011;17579;42.690;2.586;2023-03-13T00:18:02;3.10;;;1.42;;
30872;SDS011;17579;42.690;2.586;2023-03-13T00:20:30;2.58;;;1.33;;
30872;SDS011;17579;42.690;2.586;2023-03-13T00:22:55;4.63;;;1.45;;
30872;SDS011;17579;42.690;2.586;2023-03-13T00:25:21;2.80;;;1.38;;
30872;SDS011;17579;42.690;2.586;2023-03-13T00:27:47;1.42;;;1.27;;
30872;SDS011;17579;42.690;2.586;2023-03-13T00:30:13;2.63;;;1.23;;
30872;SDS011;17579;42.690;2.586;2023-03-13T00:32:40;5.55;;;1.50;;
30872;SDS011;17579;42.690;2.586;2023-03-13T00:35:08;2.45;;;1.00;;
30872;SDS011;17579;42.690;2.586;2023-03-13T00:37:34;3.97;;;1.63;;
30872;SDS011;17579;42.690;2.586;2023-03-13T00:40:00;2.00;;;1.33;;
30872;SDS011;17579;42.690;2.586;2023-03-13T00:42:25;2.70;;;1.30;;
30872;SDS011;17579;42.690;2.586;2023-03-13T00:44:51;4.25;;;1.50;;
30872;SDS011;17579;42.690;2.586;2023-03-13T00:47:16;2.35;;;1.10;;
30872;SDS011;17579;42.690;2.586;2023-03-13T00:49:42;2.25;;;1.35;;
30872;SDS011;17579;42.690;2.586;2023-03-13T00:52:07;4.43;;;1.65;;
30872;SDS011;17579;42.690;2.586;2023-03-13T00:54:33;2.75;;;1.38;;
30872;SDS011;17579;42.690;2.586;2023-03-13T00:56:59;3.63;;;1.45;;
30872;SDS011;17579;42.690;2.586;2023-03-13T00:59:24;3.58;;;1.65;;
30872;SDS011;17579;42.690;2.586;2023-03-13T01:01:50;4.22;;;1.77;;
30872;SDS011;17579;42.690;2.586;2023-03-13T01:04:16;5.20;;;1.65;;
30872;SDS011;17579;42.690;2.586;2023-03-13T01:06:41;3.65;;;1.60;;
30872;SDS011;17579;42.690;2.586;2023-03-13T01:09:08;3.78;;;1.70;;
30872;SDS011;17579;42.690;2.586;2023-03-13T01:11:37;2.67;;;1.35;;
30872;SDS011;17579;42.690;2.586;2023-03-13T01:14:05;2.30;;;1.08;;
30872;SDS011;17579;42.690;2.586;2023-03-13T01:16:33;2.22;;;1.30;;
30872;SDS011;17579;42.690;2.586;2023-03-13T01:19:01;1.98;;;1.10;;
30872;SDS011;17579;42.690;2.586;2023-03-13T01:21:28;1.98;;;1.23;;
30872;SDS011;17579;42.690;2.586;2023-03-13T01:23:54;4.38;;;1.10;;
30872;SDS011;17579;42.690;2.586;2023-03-13T01:26:21;2.72;;;1.33;;
30872;SDS011;17579;42.690;2.586;2023-03-13T01:28:47;1.70;;;1.00;;
30872;SDS011;17579;42.690;2.586;2023-03-13T01:31:15;3.25;;;1.35;;
30872;SDS011;17579;42.690;2.586;2023-03-13T01:33:43;2.35;;;1.25;;
30872;SDS011;17579;42.690;2.586;2023-03-13T01:36:09;1.80;;;1.13;;
30872;SDS011;17579;42.690;2.586;2023-03-13T01:38:36;1.45;;;1.00;;
30872;SDS011;17579;42.690;2.586;2023-03-13T01:41:02;1.73;;;1.10;;
30872;SDS011;17579;42.690;2.586;2023-03-13T01:43:29;2.33;;;1.02;;
30872;SDS011;17579;42.690;2.586;2023-03-13T01:48:24;2.60;;;1.10;;
30872;SDS011;17579;42.690;2.586;2023-03-13T01:50:55;3.08;;;0.80;;
30872;SDS011;17579;42.690;2.586;2023-03-13T01:53:24;3.55;;;1.30;;
30872;SDS011;17579;42.690;2.586;2023-03-13T01:55:50;3.60;;;1.23;;
30872;SDS011;17579;42.690;2.586;2023-03-13T01:58:18;3.33;;;1.30;;
30872;SDS011;17579;42.690;2.586;2023-03-13T02:00:44;1.80;;;1.10;;
30872;SDS011;17579;42.690;2.586;2023-03-13T02:03:11;1.77;;;1.10;;
30872;SDS011;17579;42.690;2.586;2023-03-13T02:05:42;3.63;;;1.38;;
30872;SDS011;17579;42.690;2.586;2023-03-13T02:08:10;2.90;;;1.48;;
30872;SDS011;17579;42.690;2.586;2023-03-13T02:10:47;2.15;;;1.27;;
30872;SDS011;17579;42.690;2.586;2023-03-13T02:13:26;3.50;;;1.35;;
30872;SDS011;17579;42.690;2.586;2023-03-13T02:15:53;1.60;;;1.02;;
30872;SDS011;17579;42.690;2.586;2023-03-13T02:18:19;2.15;;;1.25;;
30872;SDS011;17579;42.690;2.586;2023-03-13T02:20:44;2.83;;;1.45;;
30872;SDS011;17579;42.690;2.586;2023-03-13T02:23:15;1.80;;;1.30;;
30872;SDS011;17579;42.690;2.586;2023-03-13T02:25:42;2.38;;;1.00;;
30872;SDS011;17579;42.690;2.586;2023-03-13T02:28:12;3.05;;;1.40;;
30872;SDS011;17579;42.690;2.586;2023-03-13T02:30:43;4.18;;;1.48;;
30872;SDS011;17579;42.690;2.586;2023-03-13T02:33:10;2.17;;;1.10;;
30872;SDS011;17579;42.690;2.586;2023-03-13T02:35:36;3.13;;;1.38;;
30872;SDS011;17579;42.690;2.586;2023-03-13T02:38:03;3.80;;;1.33;;
30872;SDS011;17579;42.690;2.586;2023-03-13T02:40:34;2.80;;;1.08;;
30872;SDS011;17579;42.690;2.586;2023-03-13T02:43:04;3.22;;;1.33;;
30872;SDS011;17579;42.690;2.586;2023-03-13T02:45:35;2.30;;;1.58;;
30872;SDS011;17579;42.690;2.586;2023-03-13T02:48:00;3.00;;;1.40;;
30872;SDS011;17579;42.690;2.586;2023-03-13T02:50:26;4.43;;;1.73;;
30872;SDS011;17579;42.690;2.586;2023-03-13T02:52:54;4.25;;;1.40;;
30872;SDS011;17579;42.690;2.586;2023-03-13T02:55:23;3.20;;;1.42;;
30872;SDS011;17579;42.690;2.586;2023-03-13T02:57:53;3.45;;;1.52;;
30872;SDS011;17579;42.690;2.586;2023-03-13T03:00:19;2.35;;;1.52;;
30872;SDS011;17579;42.690;2.586;2023-03-13T03:02:50;5.55;;;1.83;;
30872;SDS011;17579;42.690;2.586;2023-03-13T03:05:16;2.45;;;1.45;;
30872;SDS011;17579;42.690;2.586;2023-03-13T03:07:42;7.88;;;1.60;;
30872;SDS011;17579;42.690;2.586;2023-03-13T03:10:07;3.40;;;1.70;;
30872;SDS011;17579;42.690;2.586;2023-03-13T03:12:33;4.85;;;1.27;;
30872;SDS011;17579;42.690;2.586;2023-03-13T03:14:59;3.78;;;1.45;;
30872;SDS011;17579;42.690;2.586;2023-03-13T03:17:24;4.60;;;1.63;;
30872;SDS011;17579;42.690;2.586;2023-03-13T03:19:50;4.38;;;1.40;;
30872;SDS011;17579;42.690;2.586;2023-03-13T03:22:16;3.42;;;1.55;;
30872;SDS011;17579;42.690;2.586;2023-03-13T03:24:43;3.80;;;1.70;;
30872;SDS011;17579;42.690;2.586;2023-03-13T03:27:09;3.10;;;1.55;;
30872;SDS011;17579;42.690;2.586;2023-03-13T03:29:34;2.25;;;1.10;;
30872;SDS011;17579;42.690;2.586;2023-03-13T03:32:00;3.05;;;1.30;;
30872;SDS011;17579;42.690;2.586;2023-03-13T03:34:26;3.67;;;1.70;;
30872;SDS011;17579;42.690;2.586;2023-03-13T03:36:51;4.20;;;1.30;;
30872;SDS011;17579;42.690;2.586;2023-03-13T03:39:17;3.28;;;1.33;;
30872;SDS011;17579;42.690;2.586;2023-03-13T03:41:42;2.85;;;1.52;;
30872;SDS011;17579;42.690;2.586;2023-03-13T03:44:08;3.97;;;1.48;;
30872;SDS011;17579;42.690;2.586;2023-03-13T03:46:34;2.75;;;1.30;;
30872;SDS011;17579;42.690;2.586;2023-03-13T03:48:59;3.75;;;1.30;;
30872;SDS011;17579;42.690;2.586;2023-03-13T03:51:25;1.90;;;1.38;;
30872;SDS011;17579;42.690;2.586;2023-03-13T03:53:51;5.00;;;1.45;;
30872;SDS011;17579;42.690;2.586;2023-03-13T03:56:17;3.00;;;1.42;;
30872;SDS011;17579;42.690;2.586;2023-03-13T03:58:43;2.90;;;1.42;;
30872;SDS011;17579;42.690;2.586;2023-03-13T04:01:08;1.80;;;1.13;;
30872;SDS011;17579;42.690;2.586;2023-03-13T04:03:34;2.78;;;1.27;;
30872;SDS011;17579;42.690;2.586;2023-03-13T04:05:59;1.70;;;1.00;;
30872;SDS011;17579;42.690;2.586;2023-03-13T04:08:25;1.60;;;0.98;;
30872;SDS011;17579;42.690;2.586;2023-03-13T04:10:51;1.45;;;1.13;;
30872;SDS011;17579;42.690;2.586;2023-03-13T04:13:16;2.55;;;1.23;;
30872;SDS011;17579;42.690;2.586;2023-03-13T04:15:42;2.75;;;1.40;;
30872;SDS011;17579;42.690;2.586;2023-03-13T04:18:08;2.13;;;1.08;;
30872;SDS011;17579;42.690;2.586;2023-03-13T04:20:33;1.88;;;1.17;;
30872;SDS011;17579;42.690;2.586;2023-03-13T04:23:00;2.70;;;1.13;;
30872;SDS011;17579;42.690;2.586;2023-03-13T04:25:25;1.80;;;1.20;;
30872;SDS011;17579;42.690;2.586;2023-03-13T04:27:51;2.25;;;1.15;;
30872;SDS011;17579;42.690;2.586;2023-03-13T04:30:16;1.50;;;1.10;;
30872;SDS011;17579;42.690;2.586;2023-03-13T04:32:42;2.88;;;1.40;;
30872;SDS011;17579;42.690;2.586;2023-03-13T04:35:08;2.20;;;1.13;;
30872;SDS011;17579;42.690;2.586;2023-03-13T04:37:33;5.15;;;1.60;;
30872;SDS011;17579;42.690;2.586;2023-03-13T04:39:59;2.92;;;1.40;;
30872;SDS011;17579;42.690;2.586;2023-03-13T04:42:25;3.22;;;1.08;;
30872;SDS011;17579;42.690;2.586;2023-03-13T04:44:51;2.40;;;1.48;;
30872;SDS011;17579;42.690;2.586;2023-03-13T04:47:17;3.05;;;1.45;;
30872;SDS011;17579;42.690;2.586;2023-03-13T04:49:42;3.55;;;1.40;;
30872;SDS011;17579;42.690;2.586;2023-03-13T04:52:08;2.70;;;1.42;;
30872;SDS011;17579;42.690;2.586;2023-03-13T04:54:33;3.30;;;1.52;;
30872;SDS011;17579;42.690;2.586;2023-03-13T04:56:59;4.40;;;1.40;;
30872;SDS011;17579;42.690;2.586;2023-03-13T04:59:24;5.22;;;1.63;;
30872;SDS011;17579;42.690;2.586;2023-03-13T05:01:50;2.63;;;1.50;;
30872;SDS011;17579;42.690;2.586;2023-03-13T05:04:16;3.35;;;1.50;;
30872;SDS011;17579;42.690;2.586;2023-03-13T05:06:41;5.68;;;1.90;;
30872;SDS011;17579;42.690;2.586;2023-03-13T05:09:07;4.82;;;1.83;;
30872;SDS011;17579;42.690;2.586;2023-03-13T05:11:33;3.58;;;1.88;;
30872;SDS011;17579;42.690;2.586;2023-03-13T05:13:58;3.78;;;1.55;;
30872;SDS011;17579;42.690;2.586;2023-03-13T05:16:24;6.80;;;1.48;;
30872;SDS011;17579;42.690;2.586;2023-03-13T05:18:49;4.57;;;1.88;;
30872;SDS011;17579;42.690;2.586;2023-03-13T05:21:15;4.25;;;1.75;;
30872;SDS011;17579;42.690;2.586;2023-03-13T05:23:41;5.00;;;1.50;;
30872;SDS011;17579;42.690;2.586;2023-03-13T05:26:06;3.63;;;1.73;;
30872;SDS011;17579;42.690;2.586;2023-03-13T05:28:32;3.15;;;1.77;;
30872;SDS011;17579;42.690;2.586;2023-03-13T05:30:58;3.53;;;1.70;;
30872;SDS011;17579;42.690;2.586;2023-03-13T05:33:23;4.05;;;2.03;;
30872;SDS011;17579;42.690;2.586;2023-03-13T05:35:49;4.55;;;1.45;;
30872;SDS011;17579;42.690;2.586;2023-03-13T05:38:14;3.67;;;1.40;;
30872;SDS011;17579;42.690;2.586;2023-03-13T05:40:40;3.55;;;1.23;;
30872;SDS011;17579;42.690;2.586;2023-03-13T05:43:06;2.95;;;1.20;;
30872;SDS011;17579;42.690;2.586;2023-03-13T05:45:32;5.75;;;1.35;;
30872;SDS011;17579;42.690;2.586;2023-03-13T05:47:57;2.05;;;1.30;;
30872;SDS011;17579;42.690;2.586;2023-03-13T05:50:23;2.17;;;1.20;;
30872;SDS011;17579;42.690;2.586;2023-03-13T05:52:49;4.90;;;1.38;;
30872;SDS011;17579;42.690;2.586;2023-03-13T05:55:15;2.58;;;1.30;;
30872;SDS011;17579;42.690;2.586;2023-03-13T05:57:44;2.83;;;1.20;;
30872;SDS011;17579;42.690;2.586;2023-03-13T06:00:11;3.13;;;1.70;;
30872;SDS011;17579;42.690;2.586;2023-03-13T06:02:37;3.13;;;1.20;;
30872;SDS011;17579;42.690;2.586;2023-03-13T06:05:03;3.10;;;1.40;;
30872;SDS011;17579;42.690;2.586;2023-03-13T06:07:29;3.40;;;1.38;;
30872;SDS011;17579;42.690;2.586;2023-03-13T06:09:54;1.92;;;1.42;;
30872;SDS011;17579;42.690;2.586;2023-03-13T06:12:20;2.78;;;1.38;;
30872;SDS011;17579;42.690;2.586;2023-03-13T06:14:45;1.45;;;1.33;;
30872;SDS011;17579;42.690;2.586;2023-03-13T06:17:11;2.20;;;1.17;;
30872;SDS011;17579;42.690;2.586;2023-03-13T06:19:37;2.92;;;1.50;;
30872;SDS011;17579;42.690;2.586;2023-03-13T06:22:02;3.08;;;1.30;;
30872;SDS011;17579;42.690;2.586;2023-03-13T06:24:28;3.45;;;1.38;;
30872;SDS011;17579;42.690;2.586;2023-03-13T06:26:54;4.18;;;1.27;;
30872;SDS011;17579;42.690;2.586;2023-03-13T06:29:19;3.55;;;1.48;;
30872;SDS011;17579;42.690;2.586;2023-03-13T06:31:45;2.10;;;1.15;;
30872;SDS011;17579;42.690;2.586;2023-03-13T06:34:11;3.07;;;1.30;;
30872;SDS011;17579;42.690;2.586;2023-03-13T06:36:38;3.03;;;1.40;;
30872;SDS011;17579;42.690;2.586;2023-03-13T06:39:04;2.55;;;1.10;;
30872;SDS011;17579;42.690;2.586;2023-03-13T06:41:30;3.25;;;1.63;;
30872;SDS011;17579;42.690;2.586;2023-03-13T06:43:55;2.47;;;1.30;;
30872;SDS011;17579;42.690;2.586;2023-03-13T06:46:22;2.17;;;1.15;;
30872;SDS011;17579;42.690;2.586;2023-03-13T06:48:49;1.83;;;1.10;;
30872;SDS011;17579;42.690;2.586;2023-03-13T06:51:16;2.20;;;1.10;;
30872;SDS011;17579;42.690;2.586;2023-03-13T06:53:43;1.98;;;1.13;;
30872;SDS011;17579;42.690;2.586;2023-03-13T06:56:09;2.05;;;1.08;;
30872;SDS011;17579;42.690;2.586;2023-03-13T06:58:35;1.95;;;1.30;;
30872;SDS011;17579;42.690;2.586;2023-03-13T07:03:28;2.35;;;1.17;;
30872;SDS011;17579;42.690;2.586;2023-03-13T07:05:55;2.78;;;1.08;;
30872;SDS011;17579;42.690;2.586;2023-03-13T07:08:21;2.70;;;1.30;;
30872;SDS011;17579;42.690;2.586;2023-03-13T07:10:46;2.05;;;1.20;;
30872;SDS011;17579;42.690;2.586;2023-03-13T07:13:16;1.98;;;0.90;;
30872;SDS011;17579;42.690;2.586;2023-03-13T07:15:44;3.00;;;1.20;;
30872;SDS011;17579;42.690;2.586;2023-03-13T07:18:10;1.42;;;1.05;;
30872;SDS011;17579;42.690;2.586;2023-03-13T07:20:35;1.35;;;1.10;;
30872;SDS011;17579;42.690;2.586;2023-03-13T07:23:01;1.50;;;0.95;;
30872;SDS011;17579;42.690;2.586;2023-03-13T07:25:26;3.53;;;1.20;;
30872;SDS011;17579;42.690;2.586;2023-03-13T07:27:52;2.47;;;1.42;;
30872;SDS011;17579;42.690;2.586;2023-03-13T07:30:18;1.67;;;1.20;;
30872;SDS011;17579;42.690;2.586;2023-03-13T07:32:44;1.67;;;1.10;;
30872;SDS011;17579;42.690;2.586;2023-03-13T07:35:09;1.42;;;1.02;;
30872;SDS011;17579;42.690;2.586;2023-03-13T07:37:35;2.35;;;1.20;;
30872;SDS011;17579;42.690;2.586;2023-03-13T07:40:01;2.92;;;1.02;;
30872;SDS011;17579;42.690;2.586;2023-03-13T07:42:26;1.73;;;1.15;;
30872;SDS011;17579;42.690;2.586;2023-03-13T07:44:52;4.55;;;1.48;;
30872;SDS011;17579;42.690;2.586;2023-03-13T07:47:17;4.47;;;1.17;;
30872;SDS011;17579;42.690;2.586;2023-03-13T07:49:43;3.13;;;1.10;;
30872;SDS011;17579;42.690;2.586;2023-03-13T07:52:10;2.33;;;1.25;;
30872;SDS011;17579;42.690;2.586;2023-03-13T07:54:36;3.60;;;1.58;;
30872;SDS011;17579;42.690;2.586;2023-03-13T07:57:02;3.80;;;1.33;;
30872;SDS011;17579;42.690;2.586;2023-03-13T07:59:28;5.40;;;1.40;;
30872;SDS011;17579;42.690;2.586;2023-03-13T08:01:53;3.28;;;1.20;;
30872;SDS011;17579;42.690;2.586;2023-03-13T08:04:19;2.53;;;1.30;;
30872;SDS011;17579;42.690;2.586;2023-03-13T08:06:44;1.20;;;1.10;;
30872;SDS011;17579;42.690;2.586;2023-03-13T08:09:10;3.17;;;1.00;;
30872;SDS011;17579;42.690;2.586;2023-03-13T08:11:37;2.58;;;1.13;;
30872;SDS011;17579;42.690;2.586;2023-03-13T08:14:05;3.13;;;1.40;;
30872;SDS011;17579;42.690;2.586;2023-03-13T08:16:32;2.50;;;1.20;;
30872;SDS011;17579;42.690;2.586;2023-03-13T08:18:59;3.28;;;1.17;;
30872;SDS011;17579;42.690;2.586;2023-03-13T08:21:27;1.95;;;1.20;;
30872;SDS011;17579;42.690;2.586;2023-03-13T08:23:55;2.22;;;1.20;;
30872;SDS011;17579;42.690;2.586;2023-03-13T08:26:24;2.22;;;1.25;;
30872;SDS011;17579;42.690;2.586;2023-03-13T08:28:54;4.10;;;1.58;;
30872;SDS011;17579;42.690;2.586;2023-03-13T08:31:22;2.60;;;1.65;;
30872;SDS011;17579;42.690;2.586;2023-03-13T08:33:49;4.35;;;1.73;;
30872;SDS011;17579;42.690;2.586;2023-03-13T08:36:26;2.05;;;1.70;;
30872;SDS011;17579;42.690;2.586;2023-03-13T08:38:57;3.10;;;1.70;;
30872;SDS011;17579;42.690;2.586;2023-03-13T08:41:24;2.45;;;1.73;;
30872;SDS011;17579;42.690;2.586;2023-03-13T08:43:53;4.75;;;1.90;;
30872;SDS011;17579;42.690;2.586;2023-03-13T08:46:20;2.20;;;1.15;;
30872;SDS011;17579;42.690;2.586;2023-03-13T08:51:14;4.57;;;1.58;;
30872;SDS011;17579;42.690;2.586;2023-03-13T08:53:40;3.88;;;1.45;;
30872;SDS011;17579;42.690;2.586;2023-03-13T08:56:08;3.67;;;1.60;;
30872;SDS011;17579;42.690;2.586;2023-03-13T08:58:34;2.35;;;1.42;;
30872;SDS011;17579;42.690;2.586;2023-03-13T09:01:01;2.65;;;1.50;;
30872;SDS011;17579;42.690;2.586;2023-03-13T09:03:27;3.95;;;1.38;;
30872;SDS011;17579;42.690;2.586;2023-03-13T09:05:55;5.25;;;1.50;;
30872;SDS011;17579;42.690;2.586;2023-03-13T09:08:22;3.38;;;1.52;;
30872;SDS011;17579;42.690;2.586;2023-03-13T09:10:47;3.55;;;1.58;;
30872;SDS011;17579;42.690;2.586;2023-03-13T09:13:20;2.30;;;1.45;;
30872;SDS011;17579;42.690;2.586;2023-03-13T09:15:52;4.72;;;1.70;;
30872;SDS011;17579;42.690;2.586;2023-03-13T09:18:19;4.78;;;2.00;;
30872;SDS011;17579;42.690;2.586;2023-03-13T09:20:44;3.90;;;1.67;;
30872;SDS011;17579;42.690;2.586;2023-03-13T09:23:10;3.45;;;1.30;;
30872;SDS011;17579;42.690;2.586;2023-03-13T09:25:36;2.90;;;1.40;;
30872;SDS011;17579;42.690;2.586;2023-03-13T09:28:03;3.95;;;1.58;;
30872;SDS011;17579;42.690;2.586;2023-03-13T09:30:29;4.85;;;1.58;;
30872;SDS011;17579;42.690;2.586;2023-03-13T09:32:54;3.38;;;1.70;;
30872;SDS011;17579;42.690;2.586;2023-03-13T09:35:20;4.32;;;1.80;;
30872;SDS011;17579;42.690;2.586;2023-03-13T09:37:46;4.75;;;1.60;;
30872;SDS011;17579;42.690;2.586;2023-03-13T09:40:13;3.10;;;1.92;;
30872;SDS011;17579;42.690;2.586;2023-03-13T09:42:49;4.18;;;1.70;;
30872;SDS011;17579;42.690;2.586;2023-03-13T09:45:42;5.65;;;2.17;;
30872;SDS011;17579;42.690;2.586;2023-03-13T09:48:07;2.97;;;2.20;;
30872;SDS011;17579;42.690;2.586;2023-03-13T09:50:43;6.63;;;2.50;;
30872;SDS011;17579;42.690;2.586;2023-03-13T09:53:18;5.32;;;2.17;;
30872;SDS011;17579;42.690;2.586;2023-03-13T09:55:51;3.22;;;1.80;;
30872;SDS011;17579;42.690;2.586;2023-03-13T09:58:18;3.00;;;2.00;;
30872;SDS011;17579;42.690;2.586;2023-03-13T10:00:50;4.03;;;2.47;;
30872;SDS011;17579;42.690;2.586;2023-03-13T10:03:22;5.80;;;2.03;;
30872;SDS011;17579;42.690;2.586;2023-03-13T10:05:54;5.57;;;2.30;;
30872;SDS011;17579;42.690;2.586;2023-03-13T10:08:24;4.68;;;2.50;;
30872;SDS011;17579;42.690;2.586;2023-03-13T10:13:22;9.88;;;2.72;;
30872;SDS011;17579;42.690;2.586;2023-03-13T10:15:57;7.18;;;3.00;;
30872;SDS011;17579;42.690;2.586;2023-03-13T10:18:26;5.35;;;2.55;;
30872;SDS011;17579;42.690;2.586;2023-03-13T10:20:52;5.93;;;3.10;;
30872;SDS011;17579;42.690;2.586;2023-03-13T10:23:24;5.97;;;2.72;;
30872;SDS011;17579;42.690;2.586;2023-03-13T10:26:01;5.93;;;2.15;;
30872;SDS011;17579;42.690;2.586;2023-03-13T10:28:26;2.95;;;2.45;;
30872;SDS011;17579;42.690;2.586;2023-03-13T10:30:53;4.93;;;2.42;;
30872;SDS011;17579;42.690;2.586;2023-03-13T10:33:27;3.08;;;1.90;;
30872;SDS011;17579;42.690;2.586;2023-03-13T10:36:02;4.07;;;1.95;;
30872;SDS011;17579;42.690;2.586;2023-03-13T10:38:32;4.25;;;1.70;;
30872;SDS011;17579;42.690;2.586;2023-03-13T10:41:17;4.47;;;1.88;;
30872;SDS011;17579;42.690;2.586;2023-03-13T10:46:11;4.45;;;1.73;;
30872;SDS011;17579;42.690;2.586;2023-03-13T10:48:49;5.47;;;2.28;;
30872;SDS011;17579;42.690;2.586;2023-03-13T10:51:21;4.10;;;2.05;;
30872;SDS011;17579;42.690;2.586;2023-03-13T10:53:48;5.05;;;1.90;;
30872;SDS011;17579;42.690;2.586;2023-03-13T10:56:18;4.57;;;2.80;;
30872;SDS011;17579;42.690;2.586;2023-03-13T10:58:50;3.60;;;2.60;;
30872;SDS011;17579;42.690;2.586;2023-03-13T11:01:20;5.85;;;2.70;;
30872;SDS011;17579;42.690;2.586;2023-03-13T11:04:17;5.82;;;2.70;;
30872;SDS011;17579;42.690;2.586;2023-03-13T11:06:50;6.60;;;2.88;;
30872;SDS011;17579;42.690;2.586;2023-03-13T11:09:17;5.93;;;2.90;;
30872;SDS011;17579;42.690;2.586;2023-03-13T11:11:43;5.53;;;3.22;;
30872;SDS011;17579;42.690;2.586;2023-03-13T11:14:12;10.13;;;3.28;;
30872;SDS011;17579;42.690;2.586;2023-03-13T11:16:45;5.00;;;2.95;;
30872;SDS011;17579;42.690;2.586;2023-03-13T11:22:04;4.68;;;3.17;;
30872;SDS011;17579;42.690;2.586;2023-03-13T11:24:43;9.40;;;4.07;;
30872;SDS011;17579;42.690;2.586;2023-03-13T11:29:47;14.82;;;7.63;;
30872;SDS011;17579;42.690;2.586;2023-03-13T11:32:19;7.97;;;4.70;;
30872;SDS011;17579;42.690;2.586;2023-03-13T11:34:53;10.35;;;6.28;;
30872;SDS011;17579;42.690;2.586;2023-03-13T11:37:22;12.63;;;7.07;;
30872;SDS011;17579;42.690;2.586;2023-03-13T11:39:54;15.52;;;7.60;;
30872;SDS011;17579;42.690;2.586;2023-03-13T11:44:56;8.63;;;5.50;;
30872;SDS011;17579;42.690;2.586;2023-03-13T11:49:53;7.80;;;4.28;;
30872;SDS011;17579;42.690;2.586;2023-03-13T11:52:42;9.07;;;4.20;;
30872;SDS011;17579;42.690;2.586;2023-03-13T12:05:17;7.68;;;4.60;;
30872;SDS011;17579;42.690;2.586;2023-03-13T12:07:52;6.07;;;3.72;;
30872;SDS011;17579;42.690;2.586;2023-03-13T12:10:26;7.63;;;4.55;;
30872;SDS011;17579;42.690;2.586;2023-03-13T12:15:47;6.38;;;4.53;;
30872;SDS011;17579;42.690;2.586;2023-03-13T12:23:06;6.70;;;4.43;;
30872;SDS011;17579;42.690;2.586;2023-03-13T12:25:45;7.50;;;4.18;;
30872;SDS011;17579;42.690;2.586;2023-03-13T12:28:20;5.60;;;3.58;;
30872;SDS011;17579;42.690;2.586;2023-03-13T12:33:25;4.20;;;3.17;;
30872;SDS011;17579;42.690;2.586;2023-03-13T12:38:25;7.50;;;4.15;;
30872;SDS011;17579;42.690;2.586;2023-03-13T12:41:16;7.35;;;3.72;;
30872;SDS011;17579;42.690;2.586;2023-03-13T12:43:46;8.32;;;4.13;;
30872;SDS011;17579;42.690;2.586;2023-03-13T12:46:19;4.90;;;3.88;;
30872;SDS011;17579;42.690;2.586;2023-03-13T12:54:05;6.05;;;3.97;;
30872;SDS011;17579;42.690;2.586;2023-03-13T12:59:36;7.22;;;3.65;;
30872;SDS011;17579;42.690;2.586;2023-03-13T13:02:19;6.35;;;3.10;;
30872;SDS011;17579;42.690;2.586;2023-03-13T13:04:48;9.05;;;3.97;;
30872;SDS011;17579;42.690;2.586;2023-03-13T13:27:24;5.20;;;3.58;;
30872;SDS011;17579;42.690;2.586;2023-03-13T13:32:38;7.78;;;4.30;;
30872;SDS011;17579;42.690;2.586;2023-03-13T13:35:17;5.00;;;3.45;;
30872;SDS011;17579;42.690;2.586;2023-03-13T13:37:49;5.32;;;4.00;;
30872;SDS011;17579;42.690;2.586;2023-03-13T13:40:17;7.25;;;4.40;;
30872;SDS011;17579;42.690;2.586;2023-03-13T13:42:46;7.32;;;4.30;;
30872;SDS011;17579;42.690;2.586;2023-03-13T13:45:22;6.32;;;4.13;;
30872;SDS011;17579;42.690;2.586;2023-03-13T13:47:50;8.18;;;4.18;;
30872;SDS011;17579;42.690;2.586;2023-03-13T13:50:32;3.95;;;3.50;;
30872;SDS011;17579;42.690;2.586;2023-03-13T13:55:44;5.18;;;3.10;;
30872;SDS011;17579;42.690;2.586;2023-03-13T13:58:10;4.13;;;3.35;;
30872;SDS011;17579;42.690;2.586;2023-03-13T14:00:43;6.43;;;3.38;;
30872;SDS011;17579;42.690;2.586;2023-03-13T14:05:42;5.25;;;3.42;;
30872;SDS011;17579;42.690;2.586;2023-03-13T14:08:28;4.32;;;3.65;;
30872;SDS011;17579;42.690;2.586;2023-03-13T14:13:22;5.45;;;3.17;;
30872;SDS011;17579;42.690;2.586;2023-03-13T14:15:49;3.70;;;3.08;;
30872;SDS011;17579;42.690;2.586;2023-03-13T14:20:58;5.30;;;4.00;;
30872;SDS011;17579;42.690;2.586;2023-03-13T14:23:27;5.40;;;3.78;;
30872;SDS011;17579;42.690;2.586;2023-03-13T14:25:55;4.50;;;3.78;;
30872;SDS011;17579;42.690;2.586;2023-03-13T14:28:22;5.20;;;4.30;;
30872;SDS011;17579;42.690;2.586;2023-03-13T14:30:51;6.65;;;3.92;;
30872;SDS011;17579;42.690;2.586;2023-03-13T14:33:18;7.10;;;5.10;;
30872;SDS011;17579;42.690;2.586;2023-03-13T14:35:45;6.35;;;5.07;;
30872;SDS011;17579;42.690;2.586;2023-03-13T14:40:38;11.07;;;5.82;;
30872;SDS011;17579;42.690;2.586;2023-03-13T14:43:04;11.52;;;6.90;;
30872;SDS011;17579;42.690;2.586;2023-03-13T14:45:40;7.57;;;6.10;;
30872;SDS011;17579;42.690;2.586;2023-03-13T14:50:32;9.15;;;6.47;;
30872;SDS011;17579;42.690;2.586;2023-03-13T14:53:00;12.50;;;6.40;;
30872;SDS011;17579;42.690;2.586;2023-03-13T14:55:34;10.57;;;6.90;;
30872;SDS011;17579;42.690;2.586;2023-03-13T14:58:02;11.23;;;6.60;;
30872;SDS011;17579;42.690;2.586;2023-03-13T15:00:40;11.15;;;6.90;;
30872;SDS011;17579;42.690;2.586;2023-03-13T15:05:35;13.00;;;6.80;;
30872;SDS011;17579;42.690;2.586;2023-03-13T15:08:01;10.68;;;7.82;;
30872;SDS011;17579;42.690;2.586;2023-03-13T15:10:35;10.23;;;7.40;;
30872;SDS011;17579;42.690;2.586;2023-03-13T15:15:28;8.55;;;6.25;;
30872;SDS011;17579;42.690;2.586;2023-03-13T15:17:54;8.68;;;5.88;;
30872;SDS011;17579;42.690;2.586;2023-03-13T15:20:19;10.75;;;6.18;;
30872;SDS011;17579;42.690;2.586;2023-03-13T15:22:47;11.45;;;6.95;;
30872;SDS011;17579;42.690;2.586;2023-03-13T15:25:14;10.98;;;6.93;;
30872;SDS011;17579;42.690;2.586;2023-03-13T15:27:41;8.10;;;5.70;;
30872;SDS011;17579;42.690;2.586;2023-03-13T15:30:07;12.52;;;5.80;;
30872;SDS011;17579;42.690;2.586;2023-03-13T15:32:38;11.85;;;5.78;;
30872;SDS011;17579;42.690;2.586;2023-03-13T15:35:10;10.60;;;6.43;;
30872;SDS011;17579;42.690;2.586;2023-03-13T15:37:45;9.65;;;5.85;;
30872;SDS011;17579;42.690;2.586;2023-03-13T15:40:12;10.88;;;6.95;;
30872;SDS011;17579;42.690;2.586;2023-03-13T15:42:39;22.25;;;7.03;;
30872;SDS011;17579;42.690;2.586;2023-03-13T15:45:05;8.70;;;5.65;;
30872;SDS011;17579;42.690;2.586;2023-03-13T15:47:31;9.63;;;5.95;;
30872;SDS011;17579;42.690;2.586;2023-03-13T15:49:57;13.40;;;6.28;;
30872;SDS011;17579;42.690;2.586;2023-03-13T15:52:23;10.13;;;5.47;;
30872;SDS011;17579;42.690;2.586;2023-03-13T15:54:49;11.02;;;5.53;;
30872;SDS011;17579;42.690;2.586;2023-03-13T15:57:16;11.52;;;6.03;;
30872;SDS011;17579;42.690;2.586;2023-03-13T15:59:47;9.75;;;5.53;;
30872;SDS011;17579;42.690;2.586;2023-03-13T16:02:14;9.95;;;5.95;;
30872;SDS011;17579;42.690;2.586;2023-03-13T16:04:42;10.43;;;5.25;;
30872;SDS011;17579;42.690;2.586;2023-03-13T16:07:12;9.85;;;5.20;;
30872;SDS011;17579;42.690;2.586;2023-03-13T16:09:40;11.07;;;6.22;;
30872;SDS011;17579;42.690;2.586;2023-03-13T16:12:07;11.95;;;5.65;;
30872;SDS011;17579;42.690;2.586;2023-03-13T16:14:33;11.20;;;6.38;;
30872;SDS011;17579;42.690;2.586;2023-03-13T16:17:00;12.60;;;5.22;;
30872;SDS011;17579;42.690;2.586;2023-03-13T16:19:28;11.13;;;5.10;;
30872;SDS011;17579;42.690;2.586;2023-03-13T16:21:59;12.65;;;6.15;;
30872;SDS011;17579;42.690;2.586;2023-03-13T16:24:25;7.10;;;4.68;;
30872;SDS011;17579;42.690;2.586;2023-03-13T16:26:51;11.00;;;5.45;;
30872;SDS011;17579;42.690;2.586;2023-03-13T16:29:17;11.05;;;6.15;;